sensor_id;sensor_type;location;lat;lon;timestamp;P1;durP1;ratioP1;P2;durP2;ratioP2
10383;SDS011;5238;43.508;4.980;2024-03-25T00:01:46;2.08;;;1.95;;
10383;SDS011;5238;43.508;4.980;2024-03-25T00:04:14;1.50;;;1.40;;
10383;SDS011;5238;43.508;4.980;2024-03-25T00:06:40;3.03;;;1.70;;
10383;SDS011;5238;43.508;4.980;2024-03-25T00:09:07;3.30;;;2.35;;
10383;SDS011;5238;43.508;4.980;2024-03-25T00:11:39;2.35;;;1.50;;
10383;SDS011;5238;43.508;4.980;2024-03-25T00:14:07;2.53;;;1.70;;
10383;SDS011;5238;43.508;4.980;2024-03-25T00:16:33;3.10;;;1.48;;
10383;SDS011;5238;43.508;4.980;2024-03-25T00:19:01;3.00;;;1.73;;
10383;SDS011;5238;43.508;4.980;2024-03-25T00:21:29;2.03;;;1.92;;
10383;SDS011;5238;43.508;4.980;2024-03-25T00:23:56;2.17;;;1.98;;
10383;SDS011;5238;43.508;4.980;2024-03-25T00:26:22;3.15;;;1.65;;
10383;SDS011;5238;43.508;4.980;2024-03-25T00:28:49;1.88;;;1.75;;
10383;SDS011;5238;43.508;4.980;2024-03-25T00:31:15;2.00;;;1.80;;
10383;SDS011;5238;43.508;4.980;2024-03-25T00:33:42;3.92;;;2.15;;
10383;SDS011;5238;43.508;4.980;2024-03-25T00:36:08;1.60;;;1.05;;
10383;SDS011;5238;43.508;4.980;2024-03-25T00:38:37;2.42;;;1.67;;
10383;SDS011;5238;43.508;4.980;2024-03-25T00:41:03;3.50;;;1.70;;
10383;SDS011;5238;43.508;4.980;2024-03-25T00:43:30;2.90;;;2.28;;
10383;SDS011;5238;43.508;4.980;2024-03-25T00:45:57;3.30;;;2.03;;
10383;SDS011;5238;43.508;4.980;2024-03-25T00:48:24;3.22;;;2.92;;
10383;SDS011;5238;43.508;4.980;2024-03-25T00:50:50;2.55;;;1.58;;
10383;SDS011;5238;43.508;4.980;2024-03-25T00:53:17;3.53;;;1.60;;
10383;SDS011;5238;43.508;4.980;2024-03-25T00:55:44;3.40;;;2.72;;
10383;SDS011;5238;43.508;4.980;2024-03-25T00:58:11;5.35;;;1.67;;
10383;SDS011;5238;43.508;4.980;2024-03-25T01:00:37;3.63;;;1.73;;
10383;SDS011;5238;43.508;4.980;2024-03-25T01:03:04;4.93;;;2.33;;
10383;SDS011;5238;43.508;4.980;2024-03-25T01:05:30;2.42;;;1.40;;
10383;SDS011;5238;43.508;4.980;2024-03-25T01:07:57;3.38;;;1.60;;
10383;SDS011;5238;43.508;4.980;2024-03-25T01:10:23;2.97;;;2.67;;
10383;SDS011;5238;43.508;4.980;2024-03-25T01:12:52;2.80;;;1.52;;
10383;SDS011;5238;43.508;4.980;2024-03-25T01:15:18;3.03;;;2.03;;
10383;SDS011;5238;43.508;4.980;2024-03-25T01:17:45;3.58;;;2.42;;
10383;SDS011;5238;43.508;4.980;2024-03-25T01:20:11;1.77;;;1.30;;
10383;SDS011;5238;43.508;4.980;2024-03-25T01:22:39;2.25;;;1.60;;
10383;SDS011;5238;43.508;4.980;2024-03-25T01:25:05;1.80;;;1.45;;
10383;SDS011;5238;43.508;4.980;2024-03-25T01:27:33;3.63;;;1.50;;
10383;SDS011;5238;43.508;4.980;2024-03-25T01:30:00;2.63;;;1.40;;
10383;SDS011;5238;43.508;4.980;2024-03-25T01:32:29;2.65;;;2.10;;
10383;SDS011;5238;43.508;4.980;2024-03-25T01:34:55;2.38;;;2.15;;
10383;SDS011;5238;43.508;4.980;2024-03-25T01:37:22;2.40;;;1.08;;
10383;SDS011;5238;43.508;4.980;2024-03-25T01:39:48;3.30;;;1.77;;
10383;SDS011;5238;43.508;4.980;2024-03-25T01:42:15;3.28;;;1.75;;
10383;SDS011;5238;43.508;4.980;2024-03-25T01:44:41;2.58;;;2.22;;
10383;SDS011;5238;43.508;4.980;2024-03-25T01:47:10;1.33;;;0.90;;
10383;SDS011;5238;43.508;4.980;2024-03-25T01:49:36;1.63;;;1.40;;
10383;SDS011;5238;43.508;4.980;2024-03-25T01:52:03;3.63;;;1.75;;
10383;SDS011;5238;43.508;4.980;2024-03-25T01:54:29;3.80;;;1.50;;
10383;SDS011;5238;43.508;4.980;2024-03-25T01:56:57;3.15;;;2.35;;
10383;SDS011;5238;43.508;4.980;2024-03-25T01:59:23;6.38;;;1.50;;
10383;SDS011;5238;43.508;4.980;2024-03-25T02:01:52;2.92;;;2.15;;
10383;SDS011;5238;43.508;4.980;2024-03-25T02:04:21;2.78;;;2.58;;
10383;SDS011;5238;43.508;4.980;2024-03-25T02:06:48;3.28;;;1.67;;
10383;SDS011;5238;43.508;4.980;2024-03-25T02:09:16;2.55;;;1.77;;
10383;SDS011;5238;43.508;4.980;2024-03-25T02:11:43;3.67;;;2.17;;
10383;SDS011;5238;43.508;4.980;2024-03-25T02:14:10;3.95;;;1.40;;
10383;SDS011;5238;43.508;4.980;2024-03-25T02:16:37;3.72;;;1.83;;
10383;SDS011;5238;43.508;4.980;2024-03-25T02:19:03;3.35;;;1.40;;
10383;SDS011;5238;43.508;4.980;2024-03-25T02:21:32;3.00;;;2.75;;
10383;SDS011;5238;43.508;4.980;2024-03-25T02:23:59;2.67;;;2.05;;
10383;SDS011;5238;43.508;4.980;2024-03-25T02:26:29;3.05;;;1.73;;
10383;SDS011;5238;43.508;4.980;2024-03-25T02:28:55;3.08;;;1.83;;
10383;SDS011;5238;43.508;4.980;2024-03-25T02:31:22;3.08;;;2.63;;
10383;SDS011;5238;43.508;4.980;2024-03-25T02:33:48;4.28;;;1.88;;
10383;SDS011;5238;43.508;4.980;2024-03-25T02:36:15;3.08;;;2.00;;
10383;SDS011;5238;43.508;4.980;2024-03-25T02:38:41;2.78;;;2.58;;
10383;SDS011;5238;43.508;4.980;2024-03-25T02:41:08;2.33;;;1.42;;
10383;SDS011;5238;43.508;4.980;2024-03-25T02:43:36;2.17;;;1.98;;
10383;SDS011;5238;43.508;4.980;2024-03-25T02:46:03;4.65;;;2.50;;
10383;SDS011;5238;43.508;4.980;2024-03-25T02:48:29;3.72;;;1.60;;
10383;SDS011;5238;43.508;4.980;2024-03-25T02:50:56;2.88;;;1.63;;
10383;SDS011;5238;43.508;4.980;2024-03-25T02:53:22;5.78;;;1.92;;
10383;SDS011;5238;43.508;4.980;2024-03-25T02:55:49;4.57;;;1.77;;
10383;SDS011;5238;43.508;4.980;2024-03-25T02:58:15;2.60;;;2.42;;
10383;SDS011;5238;43.508;4.980;2024-03-25T03:00:43;2.53;;;1.70;;
10383;SDS011;5238;43.508;4.980;2024-03-25T03:03:10;1.95;;;1.58;;
10383;SDS011;5238;43.508;4.980;2024-03-25T03:05:37;2.72;;;1.70;;
10383;SDS011;5238;43.508;4.980;2024-03-25T03:08:03;3.30;;;2.20;;
10383;SDS011;5238;43.508;4.980;2024-03-25T03:10:30;3.33;;;2.15;;
10383;SDS011;5238;43.508;4.980;2024-03-25T03:12:56;2.47;;;1.75;;
10383;SDS011;5238;43.508;4.980;2024-03-25T03:15:23;3.38;;;1.40;;
10383;SDS011;5238;43.508;4.980;2024-03-25T03:17:50;3.88;;;2.10;;
10383;SDS011;5238;43.508;4.980;2024-03-25T03:20:17;3.70;;;1.80;;
10383;SDS011;5238;43.508;4.980;2024-03-25T03:22:44;2.00;;;1.73;;
10383;SDS011;5238;43.508;4.980;2024-03-25T03:25:11;2.63;;;2.42;;
10383;SDS011;5238;43.508;4.980;2024-03-25T03:27:37;2.95;;;1.65;;
10383;SDS011;5238;43.508;4.980;2024-03-25T03:30:05;2.83;;;1.95;;
10383;SDS011;5238;43.508;4.980;2024-03-25T03:32:31;2.53;;;1.88;;
10383;SDS011;5238;43.508;4.980;2024-03-25T03:35:00;2.15;;;1.88;;
10383;SDS011;5238;43.508;4.980;2024-03-25T03:37:27;2.10;;;1.90;;
10383;SDS011;5238;43.508;4.980;2024-03-25T03:39:53;2.58;;;1.77;;
10383;SDS011;5238;43.508;4.980;2024-03-25T03:42:20;3.20;;;1.80;;
10383;SDS011;5238;43.508;4.980;2024-03-25T03:44:46;2.38;;;2.00;;
10383;SDS011;5238;43.508;4.980;2024-03-25T03:47:13;2.47;;;1.50;;
10383;SDS011;5238;43.508;4.980;2024-03-25T03:49:39;4.50;;;1.77;;
10383;SDS011;5238;43.508;4.980;2024-03-25T03:52:07;2.55;;;1.60;;
10383;SDS011;5238;43.508;4.980;2024-03-25T03:54:33;2.13;;;1.90;;
10383;SDS011;5238;43.508;4.980;2024-03-25T03:57:00;2.53;;;1.58;;
10383;SDS011;5238;43.508;4.980;2024-03-25T03:59:26;3.35;;;1.90;;
10383;SDS011;5238;43.508;4.980;2024-03-25T04:01:53;1.83;;;1.42;;
10383;SDS011;5238;43.508;4.980;2024-03-25T04:04:19;1.90;;;1.70;;
10383;SDS011;5238;43.508;4.980;2024-03-25T04:06:46;2.38;;;1.65;;
10383;SDS011;5238;43.508;4.980;2024-03-25T04:09:13;3.35;;;2.05;;
10383;SDS011;5238;43.508;4.980;2024-03-25T04:11:40;3.50;;;1.55;;
10383;SDS011;5238;43.508;4.980;2024-03-25T04:14:06;3.33;;;1.75;;
10383;SDS011;5238;43.508;4.980;2024-03-25T04:16:33;3.15;;;2.75;;
10383;SDS011;5238;43.508;4.980;2024-03-25T04:18:59;2.38;;;1.10;;
10383;SDS011;5238;43.508;4.980;2024-03-25T04:21:26;1.90;;;1.70;;
10383;SDS011;5238;43.508;4.980;2024-03-25T04:23:52;2.47;;;2.00;;
10383;SDS011;5238;43.508;4.980;2024-03-25T04:26:20;2.60;;;1.73;;
10383;SDS011;5238;43.508;4.980;2024-03-25T04:28:46;4.28;;;1.60;;
10383;SDS011;5238;43.508;4.980;2024-03-25T04:31:13;2.65;;;1.55;;
10383;SDS011;5238;43.508;4.980;2024-03-25T04:33:39;2.53;;;1.92;;
10383;SDS011;5238;43.508;4.980;2024-03-25T04:36:07;1.83;;;1.48;;
10383;SDS011;5238;43.508;4.980;2024-03-25T04:38:33;5.90;;;2.08;;
10383;SDS011;5238;43.508;4.980;2024-03-25T04:40:59;3.20;;;1.95;;
10383;SDS011;5238;43.508;4.980;2024-03-25T04:43:26;2.90;;;1.60;;
10383;SDS011;5238;43.508;4.980;2024-03-25T04:45:52;2.80;;;1.60;;
10383;SDS011;5238;43.508;4.980;2024-03-25T04:48:18;1.70;;;1.58;;
10383;SDS011;5238;43.508;4.980;2024-03-25T04:50:44;2.03;;;1.70;;
10383;SDS011;5238;43.508;4.980;2024-03-25T04:53:11;2.88;;;1.50;;
10383;SDS011;5238;43.508;4.980;2024-03-25T04:55:37;3.40;;;2.10;;
10383;SDS011;5238;43.508;4.980;2024-03-25T04:58:03;5.00;;;2.65;;
10383;SDS011;5238;43.508;4.980;2024-03-25T05:00:30;4.32;;;1.60;;
10383;SDS011;5238;43.508;4.980;2024-03-25T05:02:56;3.85;;;1.65;;
10383;SDS011;5238;43.508;4.980;2024-03-25T05:05:22;3.10;;;2.67;;
10383;SDS011;5238;43.508;4.980;2024-03-25T05:07:48;3.72;;;1.60;;
10383;SDS011;5238;43.508;4.980;2024-03-25T05:10:14;1.98;;;1.80;;
10383;SDS011;5238;43.508;4.980;2024-03-25T05:12:40;3.25;;;2.25;;
10383;SDS011;5238;43.508;4.980;2024-03-25T05:15:06;4.18;;;2.05;;
10383;SDS011;5238;43.508;4.980;2024-03-25T05:17:34;3.80;;;1.88;;
10383;SDS011;5238;43.508;4.980;2024-03-25T05:20:00;3.03;;;2.65;;
10383;SDS011;5238;43.508;4.980;2024-03-25T05:22:26;4.47;;;3.42;;
10383;SDS011;5238;43.508;4.980;2024-03-25T05:24:52;3.03;;;1.52;;
10383;SDS011;5238;43.508;4.980;2024-03-25T05:27:18;4.43;;;2.30;;
10383;SDS011;5238;43.508;4.980;2024-03-25T05:29:44;4.05;;;2.55;;
10383;SDS011;5238;43.508;4.980;2024-03-25T05:32:10;3.03;;;1.80;;
10383;SDS011;5238;43.508;4.980;2024-03-25T05:34:37;3.10;;;2.40;;
10383;SDS011;5238;43.508;4.980;2024-03-25T05:37:04;2.35;;;1.65;;
10383;SDS011;5238;43.508;4.980;2024-03-25T05:39:30;4.22;;;2.70;;
10383;SDS011;5238;43.508;4.980;2024-03-25T05:41:56;2.53;;;1.30;;
10383;SDS011;5238;43.508;4.980;2024-03-25T05:44:22;5.30;;;2.47;;
10383;SDS011;5238;43.508;4.980;2024-03-25T05:46:48;3.53;;;2.83;;
10383;SDS011;5238;43.508;4.980;2024-03-25T05:49:13;2.35;;;1.75;;
10383;SDS011;5238;43.508;4.980;2024-03-25T05:51:41;4.50;;;2.47;;
10383;SDS011;5238;43.508;4.980;2024-03-25T05:54:07;2.95;;;2.00;;
10383;SDS011;5238;43.508;4.980;2024-03-25T05:56:33;3.40;;;2.83;;
10383;SDS011;5238;43.508;4.980;2024-03-25T05:58:59;4.80;;;2.97;;
10383;SDS011;5238;43.508;4.980;2024-03-25T06:01:25;2.63;;;1.55;;
10383;SDS011;5238;43.508;4.980;2024-03-25T06:03:52;2.47;;;1.90;;
10383;SDS011;5238;43.508;4.980;2024-03-25T06:06:18;3.83;;;2.17;;
10383;SDS011;5238;43.508;4.980;2024-03-25T06:08:45;3.60;;;1.63;;
10383;SDS011;5238;43.508;4.980;2024-03-25T06:11:11;2.00;;;1.83;;
10383;SDS011;5238;43.508;4.980;2024-03-25T06:13:37;1.90;;;1.35;;
10383;SDS011;5238;43.508;4.980;2024-03-25T06:16:03;4.22;;;2.38;;
10383;SDS011;5238;43.508;4.980;2024-03-25T06:18:30;2.42;;;2.03;;
10383;SDS011;5238;43.508;4.980;2024-03-25T06:20:56;4.10;;;1.77;;
10383;SDS011;5238;43.508;4.980;2024-03-25T06:23:22;2.10;;;1.98;;
10383;SDS011;5238;43.508;4.980;2024-03-25T06:25:50;2.88;;;2.35;;
10383;SDS011;5238;43.508;4.980;2024-03-25T06:28:17;2.03;;;1.60;;
10383;SDS011;5238;43.508;4.980;2024-03-25T06:30:44;2.30;;;2.00;;
10383;SDS011;5238;43.508;4.980;2024-03-25T06:33:29;2.05;;;1.58;;
10383;SDS011;5238;43.508;4.980;2024-03-25T06:36:14;3.45;;;2.25;;
10383;SDS011;5238;43.508;4.980;2024-03-25T06:38:40;2.00;;;1.88;;
10383;SDS011;5238;43.508;4.980;2024-03-25T06:41:07;2.10;;;1.90;;
10383;SDS011;5238;43.508;4.980;2024-03-25T06:43:33;2.33;;;2.13;;
10383;SDS011;5238;43.508;4.980;2024-03-25T06:45:59;2.40;;;2.20;;
10383;SDS011;5238;43.508;4.980;2024-03-25T06:48:25;2.85;;;1.48;;
10383;SDS011;5238;43.508;4.980;2024-03-25T06:50:52;2.97;;;1.73;;
10383;SDS011;5238;43.508;4.980;2024-03-25T06:53:18;2.00;;;1.55;;
10383;SDS011;5238;43.508;4.980;2024-03-25T06:55:50;1.92;;;1.83;;
10383;SDS011;5238;43.508;4.980;2024-03-25T06:58:19;1.85;;;1.52;;
10383;SDS011;5238;43.508;4.980;2024-03-25T07:00:45;5.32;;;2.55;;
10383;SDS011;5238;43.508;4.980;2024-03-25T07:03:11;2.15;;;1.48;;
10383;SDS011;5238;43.508;4.980;2024-03-25T07:05:37;1.42;;;1.33;;
10383;SDS011;5238;43.508;4.980;2024-03-25T07:08:03;2.05;;;1.48;;
10383;SDS011;5238;43.508;4.980;2024-03-25T07:10:30;2.53;;;2.30;;
10383;SDS011;5238;43.508;4.980;2024-03-25T07:12:56;1.88;;;1.15;;
10383;SDS011;5238;43.508;4.980;2024-03-25T07:15:23;3.28;;;1.58;;
10383;SDS011;5238;43.508;4.980;2024-03-25T07:17:49;3.03;;;1.98;;
10383;SDS011;5238;43.508;4.980;2024-03-25T07:20:15;2.35;;;2.15;;
10383;SDS011;5238;43.508;4.980;2024-03-25T07:22:41;2.15;;;1.30;;
10383;SDS011;5238;43.508;4.980;2024-03-25T07:25:07;2.25;;;1.40;;
10383;SDS011;5238;43.508;4.980;2024-03-25T07:27:34;4.20;;;2.28;;
10383;SDS011;5238;43.508;4.980;2024-03-25T07:30:00;2.28;;;1.42;;
10383;SDS011;5238;43.508;4.980;2024-03-25T07:32:27;3.70;;;1.70;;
10383;SDS011;5238;43.508;4.980;2024-03-25T07:34:53;2.30;;;2.10;;
10383;SDS011;5238;43.508;4.980;2024-03-25T07:37:19;1.80;;;1.20;;
10383;SDS011;5238;43.508;4.980;2024-03-25T07:39:46;2.90;;;1.83;;
10383;SDS011;5238;43.508;4.980;2024-03-25T07:42:13;2.35;;;1.75;;
10383;SDS011;5238;43.508;4.980;2024-03-25T07:44:39;3.97;;;1.77;;
10383;SDS011;5238;43.508;4.980;2024-03-25T07:47:05;3.17;;;1.75;;
10383;SDS011;5238;43.508;4.980;2024-03-25T07:49:32;2.75;;;1.75;;
10383;SDS011;5238;43.508;4.980;2024-03-25T07:51:59;3.85;;;2.50;;
10383;SDS011;5238;43.508;4.980;2024-03-25T07:54:25;1.83;;;1.25;;
10383;SDS011;5238;43.508;4.980;2024-03-25T07:56:51;1.58;;;1.27;;
10383;SDS011;5238;43.508;4.980;2024-03-25T07:59:17;3.35;;;1.70;;
10383;SDS011;5238;43.508;4.980;2024-03-25T08:01:43;3.13;;;1.73;;
10383;SDS011;5238;43.508;4.980;2024-03-25T08:04:09;2.38;;;1.58;;
10383;SDS011;5238;43.508;4.980;2024-03-25T08:06:36;3.33;;;1.92;;
10383;SDS011;5238;43.508;4.980;2024-03-25T08:09:03;2.03;;;1.65;;
10383;SDS011;5238;43.508;4.980;2024-03-25T08:11:29;4.25;;;1.92;;
10383;SDS011;5238;43.508;4.980;2024-03-25T08:13:55;2.17;;;1.83;;
10383;SDS011;5238;43.508;4.980;2024-03-25T08:16:21;2.72;;;2.53;;
10383;SDS011;5238;43.508;4.980;2024-03-25T08:18:47;2.30;;;1.70;;
10383;SDS011;5238;43.508;4.980;2024-03-25T08:21:13;3.08;;;1.65;;
10383;SDS011;5238;43.508;4.980;2024-03-25T08:23:41;3.08;;;2.30;;
10383;SDS011;5238;43.508;4.980;2024-03-25T08:26:07;2.97;;;1.88;;
10383;SDS011;5238;43.508;4.980;2024-03-25T08:28:33;2.22;;;2.08;;
10383;SDS011;5238;43.508;4.980;2024-03-25T08:30:59;6.10;;;2.35;;
10383;SDS011;5238;43.508;4.980;2024-03-25T08:33:25;2.00;;;1.80;;
10383;SDS011;5238;43.508;4.980;2024-03-25T08:35:50;3.40;;;1.65;;
10383;SDS011;5238;43.508;4.980;2024-03-25T08:38:16;2.05;;;1.95;;
10383;SDS011;5238;43.508;4.980;2024-03-25T08:40:44;3.42;;;1.42;;
10383;SDS011;5238;43.508;4.980;2024-03-25T08:43:10;2.53;;;1.83;;
10383;SDS011;5238;43.508;4.980;2024-03-25T08:45:36;2.25;;;2.00;;
10383;SDS011;5238;43.508;4.980;2024-03-25T08:48:02;3.42;;;1.92;;
10383;SDS011;5238;43.508;4.980;2024-03-25T08:50:28;5.40;;;1.58;;
10383;SDS011;5238;43.508;4.980;2024-03-25T08:52:54;3.83;;;2.28;;
10383;SDS011;5238;43.508;4.980;2024-03-25T08:55:20;3.55;;;1.60;;
10383;SDS011;5238;43.508;4.980;2024-03-25T08:57:47;3.67;;;1.88;;
10383;SDS011;5238;43.508;4.980;2024-03-25T09:00:14;2.83;;;2.63;;
10383;SDS011;5238;43.508;4.980;2024-03-25T09:02:40;3.70;;;2.75;;
10383;SDS011;5238;43.508;4.980;2024-03-25T09:05:07;3.45;;;2.50;;
10383;SDS011;5238;43.508;4.980;2024-03-25T09:07:33;3.13;;;2.50;;
10383;SDS011;5238;43.508;4.980;2024-03-25T09:09:59;2.85;;;1.92;;
10383;SDS011;5238;43.508;4.980;2024-03-25T09:12:44;3.17;;;1.60;;
10383;SDS011;5238;43.508;4.980;2024-03-25T09:15:11;2.28;;;2.08;;
10383;SDS011;5238;43.508;4.980;2024-03-25T09:17:37;3.00;;;1.85;;
10383;SDS011;5238;43.508;4.980;2024-03-25T09:20:06;2.67;;;1.30;;
10383;SDS011;5238;43.508;4.980;2024-03-25T09:22:32;3.13;;;1.40;;
10383;SDS011;5238;43.508;4.980;2024-03-25T09:24:58;2.83;;;2.15;;
10383;SDS011;5238;43.508;4.980;2024-03-25T09:27:24;3.25;;;1.83;;
10383;SDS011;5238;43.508;4.980;2024-03-25T09:29:50;5.57;;;1.70;;
10383;SDS011;5238;43.508;4.980;2024-03-25T09:32:18;2.65;;;2.10;;
10383;SDS011;5238;43.508;4.980;2024-03-25T09:34:44;3.90;;;1.30;;
10383;SDS011;5238;43.508;4.980;2024-03-25T09:37:11;1.05;;;1.05;;
10383;SDS011;5238;43.508;4.980;2024-03-25T09:39:37;2.28;;;2.08;;
10383;SDS011;5238;43.508;4.980;2024-03-25T09:42:03;2.13;;;1.92;;
10383;SDS011;5238;43.508;4.980;2024-03-25T09:44:33;2.15;;;1.52;;
10383;SDS011;5238;43.508;4.980;2024-03-25T09:46:59;2.97;;;1.58;;
10383;SDS011;5238;43.508;4.980;2024-03-25T09:49:28;1.75;;;1.27;;
10383;SDS011;5238;43.508;4.980;2024-03-25T09:51:55;1.73;;;1.63;;
10383;SDS011;5238;43.508;4.980;2024-03-25T09:54:21;2.78;;;1.45;;
10383;SDS011;5238;43.508;4.980;2024-03-25T09:56:48;3.28;;;2.15;;
10383;SDS011;5238;43.508;4.980;2024-03-25T09:59:15;5.15;;;2.03;;
10383;SDS011;5238;43.508;4.980;2024-03-25T10:01:41;3.33;;;1.70;;
10383;SDS011;5238;43.508;4.980;2024-03-25T10:04:08;2.50;;;2.28;;
10383;SDS011;5238;43.508;4.980;2024-03-25T10:06:35;2.20;;;1.85;;
10383;SDS011;5238;43.508;4.980;2024-03-25T10:09:04;3.20;;;1.42;;
10383;SDS011;5238;43.508;4.980;2024-03-25T10:11:31;1.65;;;1.55;;
10383;SDS011;5238;43.508;4.980;2024-03-25T10:13:57;3.72;;;2.33;;
10383;SDS011;5238;43.508;4.980;2024-03-25T10:16:23;1.95;;;1.23;;
10383;SDS011;5238;43.508;4.980;2024-03-25T10:18:49;3.72;;;1.83;;
10383;SDS011;5238;43.508;4.980;2024-03-25T10:21:19;2.60;;;2.08;;
10383;SDS011;5238;43.508;4.980;2024-03-25T10:23:47;3.30;;;1.67;;
10383;SDS011;5238;43.508;4.980;2024-03-25T10:26:26;2.22;;;1.63;;
10383;SDS011;5238;43.508;4.980;2024-03-25T10:28:59;7.43;;;1.90;;
10383;SDS011;5238;43.508;4.980;2024-03-25T10:31:26;4.65;;;3.03;;
10383;SDS011;5238;43.508;4.980;2024-03-25T10:33:52;4.20;;;1.92;;
10383;SDS011;5238;43.508;4.980;2024-03-25T10:36:19;13.18;;;9.68;;
10383;SDS011;5238;43.508;4.980;2024-03-25T10:38:49;4.88;;;4.35;;
10383;SDS011;5238;43.508;4.980;2024-03-25T10:41:18;2.85;;;1.40;;
10383;SDS011;5238;43.508;4.980;2024-03-25T10:43:47;2.53;;;2.00;;
10383;SDS011;5238;43.508;4.980;2024-03-25T10:46:16;5.43;;;2.30;;
10383;SDS011;5238;43.508;4.980;2024-03-25T10:48:46;3.03;;;2.25;;
10383;SDS011;5238;43.508;4.980;2024-03-25T10:51:23;4.57;;;2.05;;
10383;SDS011;5238;43.508;4.980;2024-03-25T10:53:52;2.83;;;1.88;;
10383;SDS011;5238;43.508;4.980;2024-03-25T10:56:20;1.90;;;1.42;;
10383;SDS011;5238;43.508;4.980;2024-03-25T10:58:48;3.42;;;1.50;;
10383;SDS011;5238;43.508;4.980;2024-03-25T11:01:14;2.90;;;1.70;;
10383;SDS011;5238;43.508;4.980;2024-03-25T11:03:42;2.70;;;1.75;;
10383;SDS011;5238;43.508;4.980;2024-03-25T11:06:09;4.30;;;2.45;;
10383;SDS011;5238;43.508;4.980;2024-03-25T11:08:36;4.05;;;1.85;;
10383;SDS011;5238;43.508;4.980;2024-03-25T11:11:03;2.63;;;1.58;;
10383;SDS011;5238;43.508;4.980;2024-03-25T11:13:31;3.30;;;2.03;;
10383;SDS011;5238;43.508;4.980;2024-03-25T11:15:57;2.60;;;1.40;;
10383;SDS011;5238;43.508;4.980;2024-03-25T11:18:24;2.08;;;1.70;;
10383;SDS011;5238;43.508;4.980;2024-03-25T11:20:59;4.18;;;1.95;;
10383;SDS011;5238;43.508;4.980;2024-03-25T11:23:26;3.53;;;1.60;;
10383;SDS011;5238;43.508;4.980;2024-03-25T11:26:00;4.43;;;1.90;;
10383;SDS011;5238;43.508;4.980;2024-03-25T11:28:28;5.22;;;2.15;;
10383;SDS011;5238;43.508;4.980;2024-03-25T11:30:55;3.20;;;1.52;;
10383;SDS011;5238;43.508;4.980;2024-03-25T11:33:21;4.15;;;1.95;;
10383;SDS011;5238;43.508;4.980;2024-03-25T11:35:48;2.47;;;1.60;;
10383;SDS011;5238;43.508;4.980;2024-03-25T11:38:14;2.40;;;2.15;;
10383;SDS011;5238;43.508;4.980;2024-03-25T11:40:41;2.92;;;1.77;;
10383;SDS011;5238;43.508;4.980;2024-03-25T11:43:09;3.90;;;2.13;;
10383;SDS011;5238;43.508;4.980;2024-03-25T11:45:36;4.68;;;1.95;;
10383;SDS011;5238;43.508;4.980;2024-03-25T11:48:04;7.32;;;2.17;;
10383;SDS011;5238;43.508;4.980;2024-03-25T11:50:31;3.88;;;1.77;;
10383;SDS011;5238;43.508;4.980;2024-03-25T11:53:03;4.85;;;1.75;;
10383;SDS011;5238;43.508;4.980;2024-03-25T11:55:30;6.97;;;1.77;;
10383;SDS011;5238;43.508;4.980;2024-03-25T11:57:56;6.70;;;2.50;;
10383;SDS011;5238;43.508;4.980;2024-03-25T12:00:23;4.43;;;2.90;;
10383;SDS011;5238;43.508;4.980;2024-03-25T12:02:51;4.75;;;2.00;;
10383;SDS011;5238;43.508;4.980;2024-03-25T12:05:18;6.18;;;2.40;;
10383;SDS011;5238;43.508;4.980;2024-03-25T12:07:44;9.27;;;2.95;;
10383;SDS011;5238;43.508;4.980;2024-03-25T12:10:10;7.05;;;2.33;;
10383;SDS011;5238;43.508;4.980;2024-03-25T12:12:54;7.72;;;2.20;;
10383;SDS011;5238;43.508;4.980;2024-03-25T12:15:21;5.22;;;2.42;;
10383;SDS011;5238;43.508;4.980;2024-03-25T12:17:47;9.05;;;2.45;;
10383;SDS011;5238;43.508;4.980;2024-03-25T12:20:15;5.93;;;2.88;;
10383;SDS011;5238;43.508;4.980;2024-03-25T12:22:41;5.40;;;2.10;;
10383;SDS011;5238;43.508;4.980;2024-03-25T12:25:08;5.15;;;2.17;;
10383;SDS011;5238;43.508;4.980;2024-03-25T12:27:35;5.85;;;3.00;;
10383;SDS011;5238;43.508;4.980;2024-03-25T12:30:03;6.97;;;2.20;;
10383;SDS011;5238;43.508;4.980;2024-03-25T12:32:31;9.05;;;2.70;;
10383;SDS011;5238;43.508;4.980;2024-03-25T12:35:06;4.40;;;2.08;;
10383;SDS011;5238;43.508;4.980;2024-03-25T12:37:35;6.75;;;2.13;;
10383;SDS011;5238;43.508;4.980;2024-03-25T12:40:02;7.78;;;2.40;;
10383;SDS011;5238;43.508;4.980;2024-03-25T12:42:29;10.32;;;2.33;;
10383;SDS011;5238;43.508;4.980;2024-03-25T12:44:56;10.23;;;3.50;;
10383;SDS011;5238;43.508;4.980;2024-03-25T12:47:22;6.53;;;2.40;;
10383;SDS011;5238;43.508;4.980;2024-03-25T12:49:48;7.00;;;2.33;;
10383;SDS011;5238;43.508;4.980;2024-03-25T12:52:14;11.27;;;2.50;;
10383;SDS011;5238;43.508;4.980;2024-03-25T12:54:42;9.05;;;2.97;;
10383;SDS011;5238;43.508;4.980;2024-03-25T12:57:08;5.28;;;2.35;;
10383;SDS011;5238;43.508;4.980;2024-03-25T12:59:34;6.07;;;2.42;;
10383;SDS011;5238;43.508;4.980;2024-03-25T13:02:00;6.45;;;2.58;;
10383;SDS011;5238;43.508;4.980;2024-03-25T13:04:26;11.23;;;2.40;;
10383;SDS011;5238;43.508;4.980;2024-03-25T13:06:52;8.57;;;1.92;;
10383;SDS011;5238;43.508;4.980;2024-03-25T13:09:19;8.55;;;2.38;;
10383;SDS011;5238;43.508;4.980;2024-03-25T13:11:46;6.47;;;2.30;;
10383;SDS011;5238;43.508;4.980;2024-03-25T13:14:12;4.90;;;2.38;;
10383;SDS011;5238;43.508;4.980;2024-03-25T13:16:39;10.52;;;2.13;;
10383;SDS011;5238;43.508;4.980;2024-03-25T13:19:05;3.97;;;2.00;;
10383;SDS011;5238;43.508;4.980;2024-03-25T13:21:32;7.38;;;2.50;;
10383;SDS011;5238;43.508;4.980;2024-03-25T13:23:58;4.88;;;2.63;;
10383;SDS011;5238;43.508;4.980;2024-03-25T13:26:24;6.93;;;2.63;;
10383;SDS011;5238;43.508;4.980;2024-03-25T13:28:52;6.43;;;2.40;;
10383;SDS011;5238;43.508;4.980;2024-03-25T13:31:19;9.25;;;3.28;;
10383;SDS011;5238;43.508;4.980;2024-03-25T13:33:45;8.13;;;2.25;;
10383;SDS011;5238;43.508;4.980;2024-03-25T13:36:11;6.75;;;2.60;;
10383;SDS011;5238;43.508;4.980;2024-03-25T13:38:37;5.03;;;2.80;;
10383;SDS011;5238;43.508;4.980;2024-03-25T13:41:03;8.85;;;2.25;;
10383;SDS011;5238;43.508;4.980;2024-03-25T13:43:30;5.97;;;2.30;;
10383;SDS011;5238;43.508;4.980;2024-03-25T13:45:57;7.95;;;2.67;;
10383;SDS011;5238;43.508;4.980;2024-03-25T13:48:23;5.70;;;1.70;;
10383;SDS011;5238;43.508;4.980;2024-03-25T13:50:52;4.63;;;2.00;;
10383;SDS011;5238;43.508;4.980;2024-03-25T13:53:19;7.63;;;3.13;;
10383;SDS011;5238;43.508;4.980;2024-03-25T13:55:45;4.60;;;1.73;;
10383;SDS011;5238;43.508;4.980;2024-03-25T13:58:11;9.15;;;2.92;;
10383;SDS011;5238;43.508;4.980;2024-03-25T14:00:37;6.60;;;2.80;;
10383;SDS011;5238;43.508;4.980;2024-03-25T14:03:05;6.05;;;2.03;;
10383;SDS011;5238;43.508;4.980;2024-03-25T14:05:31;3.92;;;1.48;;
10383;SDS011;5238;43.508;4.980;2024-03-25T14:07:57;4.40;;;2.13;;
10383;SDS011;5238;43.508;4.980;2024-03-25T14:10:23;5.40;;;2.63;;
10383;SDS011;5238;43.508;4.980;2024-03-25T14:12:49;6.45;;;2.35;;
10383;SDS011;5238;43.508;4.980;2024-03-25T14:15:15;6.57;;;1.95;;
10383;SDS011;5238;43.508;4.980;2024-03-25T14:17:41;4.82;;;2.60;;
10383;SDS011;5238;43.508;4.980;2024-03-25T14:20:09;3.45;;;1.77;;
10383;SDS011;5238;43.508;4.980;2024-03-25T14:22:36;8.95;;;2.13;;
10383;SDS011;5238;43.508;4.980;2024-03-25T14:25:02;7.35;;;2.20;;
10383;SDS011;5238;43.508;4.980;2024-03-25T14:27:28;6.22;;;2.22;;
10383;SDS011;5238;43.508;4.980;2024-03-25T14:29:54;8.05;;;2.15;;
10383;SDS011;5238;43.508;4.980;2024-03-25T14:32:20;5.07;;;1.73;;
10383;SDS011;5238;43.508;4.980;2024-03-25T14:34:47;6.22;;;1.95;;
10383;SDS011;5238;43.508;4.980;2024-03-25T14:37:14;5.35;;;2.20;;
10383;SDS011;5238;43.508;4.980;2024-03-25T14:39:40;8.07;;;2.50;;
10383;SDS011;5238;43.508;4.980;2024-03-25T14:42:07;9.88;;;2.78;;
10383;SDS011;5238;43.508;4.980;2024-03-25T14:44:34;11.13;;;2.15;;
10383;SDS011;5238;43.508;4.980;2024-03-25T14:47:01;11.43;;;2.50;;
10383;SDS011;5238;43.508;4.980;2024-03-25T14:49:27;12.20;;;3.22;;
10383;SDS011;5238;43.508;4.980;2024-03-25T14:51:53;5.20;;;1.85;;
10383;SDS011;5238;43.508;4.980;2024-03-25T14:54:20;12.10;;;2.40;;
10383;SDS011;5238;43.508;4.980;2024-03-25T14:56:46;11.25;;;2.47;;
10383;SDS011;5238;43.508;4.980;2024-03-25T14:59:13;12.95;;;2.53;;